sensor_id;sensor_type;location;lat;lon;timestamp;P1;durP1;ratioP1;P2;durP2;ratioP2
10557;SDS011;5327;47.238;-2.304;2023-03-19T00:01:43;13.03;;;4.93;;
10557;SDS011;5327;47.238;-2.304;2023-03-19T00:04:10;17.23;;;4.93;;
10557;SDS011;5327;47.238;-2.304;2023-03-19T00:06:36;14.80;;;4.13;;
10557;SDS011;5327;47.238;-2.304;2023-03-19T00:09:02;14.13;;;5.20;;
10557;SDS011;5327;47.238;-2.304;2023-03-19T00:11:28;18.13;;;5.07;;
10557;SDS011;5327;47.238;-2.304;2023-03-19T00:13:53;11.60;;;5.07;;
10557;SDS011;5327;47.238;-2.304;2023-03-19T00:16:19;13.63;;;4.80;;
10557;SDS011;5327;47.238;-2.304;2023-03-19T00:18:45;13.23;;;4.87;;
10557;SDS011;5327;47.238;-2.304;2023-03-19T00:21:14;12.23;;;4.10;;
10557;SDS011;5327;47.238;-2.304;2023-03-19T00:23:39;11.83;;;4.37;;
10557;SDS011;5327;47.238;-2.304;2023-03-19T00:26:05;15.57;;;4.83;;
10557;SDS011;5327;47.238;-2.304;2023-03-19T00:28:31;13.80;;;5.23;;
10557;SDS011;5327;47.238;-2.304;2023-03-19T00:31:05;14.70;;;3.97;;
10557;SDS011;5327;47.238;-2.304;2023-03-19T00:33:35;19.60;;;5.37;;
10557;SDS011;5327;47.238;-2.304;2023-03-19T00:36:01;12.87;;;4.80;;
10557;SDS011;5327;47.238;-2.304;2023-03-19T00:38:27;13.30;;;4.90;;
10557;SDS011;5327;47.238;-2.304;2023-03-19T00:40:53;10.63;;;4.10;;
10557;SDS011;5327;47.238;-2.304;2023-03-19T00:43:19;9.50;;;4.00;;
10557;SDS011;5327;47.238;-2.304;2023-03-19T00:45:44;13.43;;;4.03;;
10557;SDS011;5327;47.238;-2.304;2023-03-19T00:48:10;12.37;;;4.37;;
10557;SDS011;5327;47.238;-2.304;2023-03-19T00:50:36;11.70;;;4.50;;
10557;SDS011;5327;47.238;-2.304;2023-03-19T00:53:02;14.57;;;5.10;;
10557;SDS011;5327;47.238;-2.304;2023-03-19T00:55:27;13.23;;;5.00;;
10557;SDS011;5327;47.238;-2.304;2023-03-19T00:57:53;14.87;;;4.30;;
10557;SDS011;5327;47.238;-2.304;2023-03-19T01:00:20;16.20;;;6.20;;
10557;SDS011;5327;47.238;-2.304;2023-03-19T01:02:46;11.87;;;3.90;;
10557;SDS011;5327;47.238;-2.304;2023-03-19T01:05:12;13.30;;;4.50;;
10557;SDS011;5327;47.238;-2.304;2023-03-19T01:07:37;11.97;;;4.17;;
10557;SDS011;5327;47.238;-2.304;2023-03-19T01:10:03;13.53;;;4.60;;
10557;SDS011;5327;47.238;-2.304;2023-03-19T01:12:30;14.83;;;4.77;;
10557;SDS011;5327;47.238;-2.304;2023-03-19T01:14:55;10.87;;;4.60;;
10557;SDS011;5327;47.238;-2.304;2023-03-19T01:17:21;17.93;;;4.50;;
10557;SDS011;5327;47.238;-2.304;2023-03-19T01:19:47;19.30;;;4.23;;
10557;SDS011;5327;47.238;-2.304;2023-03-19T01:22:13;8.83;;;3.77;;
10557;SDS011;5327;47.238;-2.304;2023-03-19T01:24:40;15.17;;;4.30;;
10557;SDS011;5327;47.238;-2.304;2023-03-19T01:27:06;12.23;;;3.77;;
10557;SDS011;5327;47.238;-2.304;2023-03-19T01:29:32;11.97;;;4.27;;
10557;SDS011;5327;47.238;-2.304;2023-03-19T01:31:58;19.00;;;5.53;;
10557;SDS011;5327;47.238;-2.304;2023-03-19T01:34:24;11.67;;;4.20;;
10557;SDS011;5327;47.238;-2.304;2023-03-19T01:36:49;15.83;;;6.40;;
10557;SDS011;5327;47.238;-2.304;2023-03-19T01:39:16;12.30;;;4.50;;
10557;SDS011;5327;47.238;-2.304;2023-03-19T01:41:42;15.13;;;5.53;;
10557;SDS011;5327;47.238;-2.304;2023-03-19T01:44:27;14.23;;;5.00;;
10557;SDS011;5327;47.238;-2.304;2023-03-19T01:46:53;11.47;;;4.67;;
10557;SDS011;5327;47.238;-2.304;2023-03-19T01:49:19;15.23;;;4.73;;
10557;SDS011;5327;47.238;-2.304;2023-03-19T01:51:47;13.13;;;4.20;;
10557;SDS011;5327;47.238;-2.304;2023-03-19T01:54:15;9.50;;;4.10;;
10557;SDS011;5327;47.238;-2.304;2023-03-19T01:56:45;9.30;;;3.23;;
10557;SDS011;5327;47.238;-2.304;2023-03-19T01:59:17;11.80;;;4.13;;
10557;SDS011;5327;47.238;-2.304;2023-03-19T02:01:57;13.87;;;4.70;;
10557;SDS011;5327;47.238;-2.304;2023-03-19T02:04:45;14.27;;;4.87;;
10557;SDS011;5327;47.238;-2.304;2023-03-19T02:07:16;13.60;;;4.30;;
10557;SDS011;5327;47.238;-2.304;2023-03-19T02:09:43;14.33;;;5.07;;
10557;SDS011;5327;47.238;-2.304;2023-03-19T02:12:09;17.27;;;5.40;;
10557;SDS011;5327;47.238;-2.304;2023-03-19T02:14:36;14.27;;;5.57;;
10557;SDS011;5327;47.238;-2.304;2023-03-19T02:17:02;14.50;;;4.90;;
10557;SDS011;5327;47.238;-2.304;2023-03-19T02:22:22;17.53;;;5.80;;
10557;SDS011;5327;47.238;-2.304;2023-03-19T02:25:10;25.80;;;6.60;;
10557;SDS011;5327;47.238;-2.304;2023-03-19T02:27:41;24.47;;;7.00;;
10557;SDS011;5327;47.238;-2.304;2023-03-19T02:30:17;17.60;;;5.23;;
10557;SDS011;5327;47.238;-2.304;2023-03-19T02:32:49;14.80;;;5.43;;
10557;SDS011;5327;47.238;-2.304;2023-03-19T02:35:15;19.67;;;5.80;;
10557;SDS011;5327;47.238;-2.304;2023-03-19T02:37:40;15.73;;;5.37;;
10557;SDS011;5327;47.238;-2.304;2023-03-19T02:40:08;15.13;;;4.50;;
10557;SDS011;5327;47.238;-2.304;2023-03-19T02:42:38;18.80;;;5.57;;
10557;SDS011;5327;47.238;-2.304;2023-03-19T02:45:04;14.27;;;5.13;;
10557;SDS011;5327;47.238;-2.304;2023-03-19T02:47:31;25.57;;;4.90;;
10557;SDS011;5327;47.238;-2.304;2023-03-19T02:49:57;18.77;;;5.77;;
10557;SDS011;5327;47.238;-2.304;2023-03-19T02:52:22;14.20;;;4.93;;
10557;SDS011;5327;47.238;-2.304;2023-03-19T02:54:48;19.93;;;5.40;;
10557;SDS011;5327;47.238;-2.304;2023-03-19T02:57:14;13.83;;;5.70;;
10557;SDS011;5327;47.238;-2.304;2023-03-19T02:59:40;16.87;;;4.33;;
10557;SDS011;5327;47.238;-2.304;2023-03-19T03:02:05;15.53;;;5.30;;
10557;SDS011;5327;47.238;-2.304;2023-03-19T03:04:32;18.40;;;5.27;;
10557;SDS011;5327;47.238;-2.304;2023-03-19T03:06:58;17.13;;;5.87;;
10557;SDS011;5327;47.238;-2.304;2023-03-19T03:09:24;17.13;;;4.50;;
10557;SDS011;5327;47.238;-2.304;2023-03-19T03:11:51;15.13;;;4.70;;
10557;SDS011;5327;47.238;-2.304;2023-03-19T03:14:17;18.63;;;4.70;;
10557;SDS011;5327;47.238;-2.304;2023-03-19T03:16:43;15.73;;;4.30;;
10557;SDS011;5327;47.238;-2.304;2023-03-19T03:19:08;11.30;;;4.50;;
10557;SDS011;5327;47.238;-2.304;2023-03-19T03:21:35;10.00;;;3.70;;
10557;SDS011;5327;47.238;-2.304;2023-03-19T03:24:01;15.30;;;4.30;;
10557;SDS011;5327;47.238;-2.304;2023-03-19T03:26:27;8.80;;;3.00;;
10557;SDS011;5327;47.238;-2.304;2023-03-19T03:28:53;11.00;;;3.20;;
10557;SDS011;5327;47.238;-2.304;2023-03-19T03:31:19;12.50;;;3.40;;
10557;SDS011;5327;47.238;-2.304;2023-03-19T03:33:45;9.63;;;3.00;;
10557;SDS011;5327;47.238;-2.304;2023-03-19T03:36:11;10.43;;;2.93;;
10557;SDS011;5327;47.238;-2.304;2023-03-19T03:38:37;7.00;;;2.60;;
10557;SDS011;5327;47.238;-2.304;2023-03-19T03:41:04;8.73;;;2.70;;
10557;SDS011;5327;47.238;-2.304;2023-03-19T03:43:30;7.70;;;2.63;;
10557;SDS011;5327;47.238;-2.304;2023-03-19T03:45:55;10.13;;;3.40;;
10557;SDS011;5327;47.238;-2.304;2023-03-19T03:48:21;8.80;;;2.53;;
10557;SDS011;5327;47.238;-2.304;2023-03-19T03:50:47;7.53;;;2.57;;
10557;SDS011;5327;47.238;-2.304;2023-03-19T03:53:13;8.43;;;2.70;;
10557;SDS011;5327;47.238;-2.304;2023-03-19T03:55:39;9.30;;;2.53;;
10557;SDS011;5327;47.238;-2.304;2023-03-19T03:58:05;6.90;;;2.13;;
10557;SDS011;5327;47.238;-2.304;2023-03-19T04:00:31;8.20;;;2.20;;
10557;SDS011;5327;47.238;-2.304;2023-03-19T04:02:57;6.90;;;2.20;;
10557;SDS011;5327;47.238;-2.304;2023-03-19T04:05:23;5.30;;;1.87;;
10557;SDS011;5327;47.238;-2.304;2023-03-19T04:07:49;8.03;;;2.20;;
10557;SDS011;5327;47.238;-2.304;2023-03-19T04:10:15;8.40;;;2.23;;
10557;SDS011;5327;47.238;-2.304;2023-03-19T04:12:41;7.00;;;2.13;;
10557;SDS011;5327;47.238;-2.304;2023-03-19T04:15:07;8.10;;;2.20;;
10557;SDS011;5327;47.238;-2.304;2023-03-19T04:17:34;6.83;;;1.90;;
10557;SDS011;5327;47.238;-2.304;2023-03-19T04:20:01;6.50;;;1.93;;
10557;SDS011;5327;47.238;-2.304;2023-03-19T04:22:28;6.90;;;2.30;;
10557;SDS011;5327;47.238;-2.304;2023-03-19T04:24:54;7.73;;;2.50;;
10557;SDS011;5327;47.238;-2.304;2023-03-19T04:27:20;9.83;;;2.60;;
10557;SDS011;5327;47.238;-2.304;2023-03-19T04:29:46;5.80;;;1.90;;
10557;SDS011;5327;47.238;-2.304;2023-03-19T04:32:11;7.67;;;2.20;;
10557;SDS011;5327;47.238;-2.304;2023-03-19T04:34:37;7.80;;;2.33;;
10557;SDS011;5327;47.238;-2.304;2023-03-19T04:37:03;8.80;;;2.33;;
10557;SDS011;5327;47.238;-2.304;2023-03-19T04:39:28;7.50;;;2.10;;
10557;SDS011;5327;47.238;-2.304;2023-03-19T04:41:54;9.37;;;2.33;;
10557;SDS011;5327;47.238;-2.304;2023-03-19T04:44:21;9.30;;;2.57;;
10557;SDS011;5327;47.238;-2.304;2023-03-19T04:46:47;8.87;;;2.73;;
10557;SDS011;5327;47.238;-2.304;2023-03-19T04:49:13;8.23;;;2.27;;
10557;SDS011;5327;47.238;-2.304;2023-03-19T04:51:39;8.17;;;2.30;;
10557;SDS011;5327;47.238;-2.304;2023-03-19T04:54:06;13.47;;;3.13;;
10557;SDS011;5327;47.238;-2.304;2023-03-19T04:56:32;8.03;;;2.27;;
10557;SDS011;5327;47.238;-2.304;2023-03-19T04:58:57;12.00;;;2.77;;
10557;SDS011;5327;47.238;-2.304;2023-03-19T05:01:23;10.60;;;2.60;;
10557;SDS011;5327;47.238;-2.304;2023-03-19T05:03:49;8.60;;;2.40;;
10557;SDS011;5327;47.238;-2.304;2023-03-19T05:06:15;9.83;;;2.63;;
10557;SDS011;5327;47.238;-2.304;2023-03-19T05:08:41;10.87;;;2.70;;
10557;SDS011;5327;47.238;-2.304;2023-03-19T05:11:07;8.83;;;2.43;;
10557;SDS011;5327;47.238;-2.304;2023-03-19T05:13:32;7.83;;;2.47;;
10557;SDS011;5327;47.238;-2.304;2023-03-19T05:15:59;11.53;;;2.67;;
10557;SDS011;5327;47.238;-2.304;2023-03-19T05:18:26;11.30;;;3.00;;
10557;SDS011;5327;47.238;-2.304;2023-03-19T05:20:51;10.70;;;2.40;;
10557;SDS011;5327;47.238;-2.304;2023-03-19T05:23:18;9.20;;;2.60;;
10557;SDS011;5327;47.238;-2.304;2023-03-19T05:25:44;8.80;;;2.37;;
10557;SDS011;5327;47.238;-2.304;2023-03-19T05:28:11;9.20;;;2.70;;
10557;SDS011;5327;47.238;-2.304;2023-03-19T05:30:37;8.43;;;2.13;;
10557;SDS011;5327;47.238;-2.304;2023-03-19T05:33:03;8.43;;;2.30;;
10557;SDS011;5327;47.238;-2.304;2023-03-19T05:35:29;8.50;;;2.60;;
10557;SDS011;5327;47.238;-2.304;2023-03-19T05:37:55;5.50;;;1.57;;
10557;SDS011;5327;47.238;-2.304;2023-03-19T05:40:21;8.57;;;1.90;;
10557;SDS011;5327;47.238;-2.304;2023-03-19T05:42:48;6.27;;;1.60;;
10557;SDS011;5327;47.238;-2.304;2023-03-19T05:45:14;6.00;;;1.80;;
10557;SDS011;5327;47.238;-2.304;2023-03-19T05:47:41;6.30;;;1.70;;
10557;SDS011;5327;47.238;-2.304;2023-03-19T05:50:07;8.20;;;2.30;;
10557;SDS011;5327;47.238;-2.304;2023-03-19T05:52:34;6.17;;;1.70;;
10557;SDS011;5327;47.238;-2.304;2023-03-19T05:55:00;6.63;;;1.87;;
10557;SDS011;5327;47.238;-2.304;2023-03-19T05:57:26;10.83;;;2.10;;
10557;SDS011;5327;47.238;-2.304;2023-03-19T05:59:51;9.70;;;1.80;;
10557;SDS011;5327;47.238;-2.304;2023-03-19T06:02:17;7.90;;;2.00;;
10557;SDS011;5327;47.238;-2.304;2023-03-19T06:04:43;8.03;;;2.20;;
10557;SDS011;5327;47.238;-2.304;2023-03-19T06:07:10;6.67;;;1.97;;
10557;SDS011;5327;47.238;-2.304;2023-03-19T06:09:35;7.00;;;2.00;;
10557;SDS011;5327;47.238;-2.304;2023-03-19T06:12:01;9.20;;;1.87;;
10557;SDS011;5327;47.238;-2.304;2023-03-19T06:14:28;9.80;;;1.93;;
10557;SDS011;5327;47.238;-2.304;2023-03-19T06:16:54;7.60;;;2.30;;
10557;SDS011;5327;47.238;-2.304;2023-03-19T06:19:20;9.10;;;2.97;;
10557;SDS011;5327;47.238;-2.304;2023-03-19T06:21:46;7.37;;;2.40;;
10557;SDS011;5327;47.238;-2.304;2023-03-19T06:24:11;10.20;;;2.70;;
10557;SDS011;5327;47.238;-2.304;2023-03-19T06:26:37;5.93;;;2.00;;
10557;SDS011;5327;47.238;-2.304;2023-03-19T06:29:03;5.50;;;1.50;;
10557;SDS011;5327;47.238;-2.304;2023-03-19T06:31:28;6.27;;;2.20;;
10557;SDS011;5327;47.238;-2.304;2023-03-19T06:33:54;6.10;;;1.73;;
10557;SDS011;5327;47.238;-2.304;2023-03-19T06:36:20;6.43;;;1.77;;
10557;SDS011;5327;47.238;-2.304;2023-03-19T06:38:46;5.10;;;1.50;;
10557;SDS011;5327;47.238;-2.304;2023-03-19T06:41:11;6.90;;;1.90;;
10557;SDS011;5327;47.238;-2.304;2023-03-19T06:43:37;6.03;;;1.90;;
10557;SDS011;5327;47.238;-2.304;2023-03-19T06:46:06;8.60;;;1.70;;
10557;SDS011;5327;47.238;-2.304;2023-03-19T06:48:33;5.23;;;1.57;;
10557;SDS011;5327;47.238;-2.304;2023-03-19T06:50:59;5.00;;;1.40;;
10557;SDS011;5327;47.238;-2.304;2023-03-19T06:53:25;6.80;;;1.90;;
10557;SDS011;5327;47.238;-2.304;2023-03-19T06:55:52;8.43;;;1.93;;
10557;SDS011;5327;47.238;-2.304;2023-03-19T06:58:18;7.50;;;1.60;;
10557;SDS011;5327;47.238;-2.304;2023-03-19T07:00:44;7.17;;;2.10;;
10557;SDS011;5327;47.238;-2.304;2023-03-19T07:03:10;7.53;;;2.17;;
10557;SDS011;5327;47.238;-2.304;2023-03-19T07:05:36;7.43;;;1.90;;
10557;SDS011;5327;47.238;-2.304;2023-03-19T07:08:02;9.30;;;1.87;;
10557;SDS011;5327;47.238;-2.304;2023-03-19T07:10:27;7.43;;;1.90;;
10557;SDS011;5327;47.238;-2.304;2023-03-19T07:12:53;8.53;;;2.00;;
10557;SDS011;5327;47.238;-2.304;2023-03-19T07:15:19;5.20;;;1.73;;
10557;SDS011;5327;47.238;-2.304;2023-03-19T07:17:46;8.80;;;2.10;;
10557;SDS011;5327;47.238;-2.304;2023-03-19T07:20:12;7.90;;;1.83;;
10557;SDS011;5327;47.238;-2.304;2023-03-19T07:22:38;6.70;;;1.47;;
10557;SDS011;5327;47.238;-2.304;2023-03-19T07:25:04;7.10;;;1.80;;
10557;SDS011;5327;47.238;-2.304;2023-03-19T07:27:31;6.60;;;1.73;;
10557;SDS011;5327;47.238;-2.304;2023-03-19T07:29:57;8.93;;;2.10;;
10557;SDS011;5327;47.238;-2.304;2023-03-19T07:32:22;6.87;;;1.97;;
10557;SDS011;5327;47.238;-2.304;2023-03-19T07:34:48;7.00;;;1.77;;
10557;SDS011;5327;47.238;-2.304;2023-03-19T07:37:14;8.00;;;1.80;;
10557;SDS011;5327;47.238;-2.304;2023-03-19T07:39:40;6.80;;;1.70;;
10557;SDS011;5327;47.238;-2.304;2023-03-19T07:42:05;6.20;;;1.63;;
10557;SDS011;5327;47.238;-2.304;2023-03-19T07:44:31;10.53;;;2.20;;
10557;SDS011;5327;47.238;-2.304;2023-03-19T07:46:57;6.90;;;1.83;;
10557;SDS011;5327;47.238;-2.304;2023-03-19T07:49:23;9.33;;;2.00;;
10557;SDS011;5327;47.238;-2.304;2023-03-19T07:51:49;7.30;;;1.80;;
10557;SDS011;5327;47.238;-2.304;2023-03-19T07:54:15;7.70;;;2.10;;
10557;SDS011;5327;47.238;-2.304;2023-03-19T07:56:41;7.87;;;1.90;;
10557;SDS011;5327;47.238;-2.304;2023-03-19T07:59:07;6.80;;;1.93;;
10557;SDS011;5327;47.238;-2.304;2023-03-19T08:01:33;10.63;;;1.97;;
10557;SDS011;5327;47.238;-2.304;2023-03-19T08:03:58;7.13;;;1.90;;
10557;SDS011;5327;47.238;-2.304;2023-03-19T08:06:24;7.10;;;1.80;;
10557;SDS011;5327;47.238;-2.304;2023-03-19T08:08:50;11.60;;;2.60;;
10557;SDS011;5327;47.238;-2.304;2023-03-19T08:11:16;8.00;;;2.13;;
10557;SDS011;5327;47.238;-2.304;2023-03-19T08:13:42;11.03;;;3.00;;
10557;SDS011;5327;47.238;-2.304;2023-03-19T08:16:08;6.80;;;1.83;;
10557;SDS011;5327;47.238;-2.304;2023-03-19T08:18:34;5.87;;;1.70;;
10557;SDS011;5327;47.238;-2.304;2023-03-19T08:21:00;8.70;;;2.90;;
10557;SDS011;5327;47.238;-2.304;2023-03-19T08:23:26;8.43;;;3.23;;
10557;SDS011;5327;47.238;-2.304;2023-03-19T08:25:52;8.23;;;1.90;;
10557;SDS011;5327;47.238;-2.304;2023-03-19T08:28:19;9.03;;;2.30;;
10557;SDS011;5327;47.238;-2.304;2023-03-19T08:30:45;5.40;;;1.67;;
10557;SDS011;5327;47.238;-2.304;2023-03-19T08:33:11;6.50;;;1.67;;
10557;SDS011;5327;47.238;-2.304;2023-03-19T08:35:37;7.10;;;1.80;;
10557;SDS011;5327;47.238;-2.304;2023-03-19T08:38:03;7.27;;;2.07;;
10557;SDS011;5327;47.238;-2.304;2023-03-19T08:40:29;9.47;;;2.43;;
10557;SDS011;5327;47.238;-2.304;2023-03-19T08:42:55;11.53;;;3.13;;
10557;SDS011;5327;47.238;-2.304;2023-03-19T08:45:21;9.67;;;2.30;;
10557;SDS011;5327;47.238;-2.304;2023-03-19T08:47:47;5.33;;;1.60;;
10557;SDS011;5327;47.238;-2.304;2023-03-19T08:50:14;8.03;;;2.33;;
10557;SDS011;5327;47.238;-2.304;2023-03-19T08:52:40;13.20;;;3.20;;
10557;SDS011;5327;47.238;-2.304;2023-03-19T08:55:06;13.83;;;2.67;;
10557;SDS011;5327;47.238;-2.304;2023-03-19T08:57:33;8.93;;;2.20;;
10557;SDS011;5327;47.238;-2.304;2023-03-19T09:00:00;7.83;;;2.20;;
10557;SDS011;5327;47.238;-2.304;2023-03-19T09:02:26;8.07;;;2.03;;
10557;SDS011;5327;47.238;-2.304;2023-03-19T09:04:52;6.97;;;2.07;;
10557;SDS011;5327;47.238;-2.304;2023-03-19T09:07:18;10.20;;;1.93;;
10557;SDS011;5327;47.238;-2.304;2023-03-19T09:09:44;9.20;;;2.70;;
10557;SDS011;5327;47.238;-2.304;2023-03-19T09:12:11;13.30;;;2.50;;
10557;SDS011;5327;47.238;-2.304;2023-03-19T09:14:39;11.00;;;2.27;;
10557;SDS011;5327;47.238;-2.304;2023-03-19T09:17:05;20.87;;;3.80;;
10557;SDS011;5327;47.238;-2.304;2023-03-19T09:19:31;9.77;;;2.53;;
10557;SDS011;5327;47.238;-2.304;2023-03-19T09:21:58;9.20;;;2.60;;
10557;SDS011;5327;47.238;-2.304;2023-03-19T09:24:24;9.00;;;2.40;;
10557;SDS011;5327;47.238;-2.304;2023-03-19T09:26:50;9.97;;;2.63;;
10557;SDS011;5327;47.238;-2.304;2023-03-19T09:29:16;7.43;;;2.17;;
10557;SDS011;5327;47.238;-2.304;2023-03-19T09:31:41;7.50;;;2.20;;
10557;SDS011;5327;47.238;-2.304;2023-03-19T09:34:07;10.03;;;2.40;;
10557;SDS011;5327;47.238;-2.304;2023-03-19T09:36:35;10.30;;;2.50;;
10557;SDS011;5327;47.238;-2.304;2023-03-19T09:39:02;18.40;;;4.10;;
10557;SDS011;5327;47.238;-2.304;2023-03-19T09:44:13;6.90;;;1.90;;
10557;SDS011;5327;47.238;-2.304;2023-03-19T09:46:49;13.53;;;3.03;;
10557;SDS011;5327;47.238;-2.304;2023-03-19T09:49:30;8.57;;;2.17;;
10557;SDS011;5327;47.238;-2.304;2023-03-19T09:52:08;8.40;;;2.40;;
10557;SDS011;5327;47.238;-2.304;2023-03-19T09:54:59;11.00;;;2.57;;
10557;SDS011;5327;47.238;-2.304;2023-03-19T09:57:47;12.60;;;2.50;;
10557;SDS011;5327;47.238;-2.304;2023-03-19T10:02:48;7.80;;;2.50;;
10557;SDS011;5327;47.238;-2.304;2023-03-19T10:05:26;9.57;;;2.90;;
10557;SDS011;5327;47.238;-2.304;2023-03-19T10:10:48;16.63;;;3.30;;
10557;SDS011;5327;47.238;-2.304;2023-03-19T10:13:25;13.10;;;4.10;;
10557;SDS011;5327;47.238;-2.304;2023-03-19T10:15:53;16.50;;;3.77;;
10557;SDS011;5327;47.238;-2.304;2023-03-19T10:18:21;17.87;;;4.40;;
10557;SDS011;5327;47.238;-2.304;2023-03-19T10:21:05;22.10;;;4.90;;
10557;SDS011;5327;47.238;-2.304;2023-03-19T10:23:50;19.27;;;4.30;;
10557;SDS011;5327;47.238;-2.304;2023-03-19T10:26:37;22.13;;;4.27;;
10557;SDS011;5327;47.238;-2.304;2023-03-19T10:34:34;23.63;;;4.00;;
10557;SDS011;5327;47.238;-2.304;2023-03-19T10:37:11;16.80;;;4.53;;
10557;SDS011;5327;47.238;-2.304;2023-03-19T10:39:45;25.80;;;5.33;;
10557;SDS011;5327;47.238;-2.304;2023-03-19T10:47:58;16.80;;;3.93;;
10557;SDS011;5327;47.238;-2.304;2023-03-19T10:50:36;17.27;;;4.13;;
10557;SDS011;5327;47.238;-2.304;2023-03-19T10:55:38;14.70;;;3.27;;
10557;SDS011;5327;47.238;-2.304;2023-03-19T10:58:18;32.43;;;5.10;;
10557;SDS011;5327;47.238;-2.304;2023-03-19T11:00:47;15.33;;;4.20;;
10557;SDS011;5327;47.238;-2.304;2023-03-19T11:03:35;19.73;;;4.23;;
10557;SDS011;5327;47.238;-2.304;2023-03-19T11:08:38;22.07;;;4.20;;
10557;SDS011;5327;47.238;-2.304;2023-03-19T11:11:04;19.07;;;3.90;;
10557;SDS011;5327;47.238;-2.304;2023-03-19T11:13:29;17.20;;;4.40;;
10557;SDS011;5327;47.238;-2.304;2023-03-19T11:16:00;18.70;;;4.20;;
10557;SDS011;5327;47.238;-2.304;2023-03-19T11:18:34;21.30;;;5.33;;
10557;SDS011;5327;47.238;-2.304;2023-03-19T11:21:47;14.73;;;3.70;;
10557;SDS011;5327;47.238;-2.304;2023-03-19T11:23:57;27.67;;;5.77;;
10557;SDS011;5327;47.238;-2.304;2023-03-19T11:26:26;18.43;;;3.93;;
10557;SDS011;5327;47.238;-2.304;2023-03-19T11:29:00;13.33;;;3.37;;
10557;SDS011;5327;47.238;-2.304;2023-03-19T11:31:30;14.40;;;4.30;;
10557;SDS011;5327;47.238;-2.304;2023-03-19T11:39:42;22.20;;;4.80;;
10557;SDS011;5327;47.238;-2.304;2023-03-19T11:50:44;11.40;;;3.80;;
10557;SDS011;5327;47.238;-2.304;2023-03-19T11:53:21;18.73;;;4.23;;
10557;SDS011;5327;47.238;-2.304;2023-03-19T12:15:38;17.80;;;4.10;;
10557;SDS011;5327;47.238;-2.304;2023-03-19T12:20:55;16.13;;;3.20;;
10557;SDS011;5327;47.238;-2.304;2023-03-19T12:26:05;18.40;;;5.07;;
10557;SDS011;5327;47.238;-2.304;2023-03-19T12:28:40;21.67;;;5.30;;
10557;SDS011;5327;47.238;-2.304;2023-03-19T12:36:30;18.63;;;4.33;;
10557;SDS011;5327;47.238;-2.304;2023-03-19T12:39:01;26.37;;;5.00;;
10557;SDS011;5327;47.238;-2.304;2023-03-19T12:41:31;14.40;;;3.50;;
10557;SDS011;5327;47.238;-2.304;2023-03-19T12:44:02;15.07;;;3.43;;
10557;SDS011;5327;47.238;-2.304;2023-03-19T12:55:04;19.23;;;3.93;;
10557;SDS011;5327;47.238;-2.304;2023-03-19T13:03:28;13.17;;;3.70;;
10557;SDS011;5327;47.238;-2.304;2023-03-19T13:06:18;26.43;;;5.20;;
10557;SDS011;5327;47.238;-2.304;2023-03-19T13:13:57;18.47;;;4.30;;
10557;SDS011;5327;47.238;-2.304;2023-03-19T13:16:38;17.37;;;4.33;;
10557;SDS011;5327;47.238;-2.304;2023-03-19T13:22:09;15.47;;;3.40;;
10557;SDS011;5327;47.238;-2.304;2023-03-19T13:24:39;17.00;;;3.20;;
10557;SDS011;5327;47.238;-2.304;2023-03-19T13:27:10;19.83;;;4.43;;
10557;SDS011;5327;47.238;-2.304;2023-03-19T13:38:06;18.60;;;4.20;;
10557;SDS011;5327;47.238;-2.304;2023-03-19T13:59:33;16.80;;;3.73;;
10557;SDS011;5327;47.238;-2.304;2023-03-19T14:02:43;19.53;;;4.20;;
10557;SDS011;5327;47.238;-2.304;2023-03-19T14:05:02;24.23;;;5.03;;
10557;SDS011;5327;47.238;-2.304;2023-03-19T14:07:40;24.90;;;4.13;;
10557;SDS011;5327;47.238;-2.304;2023-03-19T14:10:13;23.47;;;5.00;;
10557;SDS011;5327;47.238;-2.304;2023-03-19T14:12:46;21.13;;;4.10;;
10557;SDS011;5327;47.238;-2.304;2023-03-19T14:15:20;24.83;;;4.87;;
10557;SDS011;5327;47.238;-2.304;2023-03-19T14:17:54;20.80;;;4.47;;
10557;SDS011;5327;47.238;-2.304;2023-03-19T14:20:32;24.23;;;4.23;;
10557;SDS011;5327;47.238;-2.304;2023-03-19T14:25:55;18.80;;;4.53;;
10557;SDS011;5327;47.238;-2.304;2023-03-19T14:36:41;17.37;;;4.13;;
10557;SDS011;5327;47.238;-2.304;2023-03-19T14:41:54;20.50;;;4.60;;
10557;SDS011;5327;47.238;-2.304;2023-03-19T14:44:37;22.30;;;3.97;;
10557;SDS011;5327;47.238;-2.304;2023-03-19T14:47:16;25.33;;;4.70;;
10557;SDS011;5327;47.238;-2.304;2023-03-19T14:55:21;16.00;;;3.90;;
10557;SDS011;5327;47.238;-2.304;2023-03-19T14:57:46;23.03;;;4.80;;
10557;SDS011;5327;47.238;-2.304;2023-03-19T15:00:13;15.13;;;3.93;;
10557;SDS011;5327;47.238;-2.304;2023-03-19T15:02:46;22.57;;;3.80;;
10557;SDS011;5327;47.238;-2.304;2023-03-19T15:05:17;19.67;;;3.77;;
10557;SDS011;5327;47.238;-2.304;2023-03-19T15:07:46;21.57;;;4.03;;
10557;SDS011;5327;47.238;-2.304;2023-03-19T15:10:14;30.13;;;4.53;;
10557;SDS011;5327;47.238;-2.304;2023-03-19T15:18:17;23.13;;;4.37;;
10557;SDS011;5327;47.238;-2.304;2023-03-19T15:20:45;22.10;;;4.33;;
10557;SDS011;5327;47.238;-2.304;2023-03-19T15:23:17;24.73;;;4.50;;
10557;SDS011;5327;47.238;-2.304;2023-03-19T15:28:13;15.53;;;4.10;;
10557;SDS011;5327;47.238;-2.304;2023-03-19T15:30:40;23.50;;;4.40;;
10557;SDS011;5327;47.238;-2.304;2023-03-19T15:33:19;22.60;;;4.67;;
10557;SDS011;5327;47.238;-2.304;2023-03-19T15:35:54;20.20;;;4.27;;
10557;SDS011;5327;47.238;-2.304;2023-03-19T15:38:25;18.53;;;4.33;;
10557;SDS011;5327;47.238;-2.304;2023-03-19T15:40:54;20.73;;;4.27;;
10557;SDS011;5327;47.238;-2.304;2023-03-19T15:43:20;13.83;;;4.00;;
10557;SDS011;5327;47.238;-2.304;2023-03-19T15:45:48;19.70;;;5.50;;
10557;SDS011;5327;47.238;-2.304;2023-03-19T15:48:20;22.27;;;4.90;;
10557;SDS011;5327;47.238;-2.304;2023-03-19T15:50:56;16.17;;;3.10;;
10557;SDS011;5327;47.238;-2.304;2023-03-19T15:53:24;18.37;;;4.63;;
10557;SDS011;5327;47.238;-2.304;2023-03-19T15:55:53;25.50;;;4.93;;
10557;SDS011;5327;47.238;-2.304;2023-03-19T15:58:21;17.80;;;3.80;;
10557;SDS011;5327;47.238;-2.304;2023-03-19T16:00:52;28.17;;;5.90;;
10557;SDS011;5327;47.238;-2.304;2023-03-19T16:03:23;22.10;;;5.63;;
10557;SDS011;5327;47.238;-2.304;2023-03-19T16:06:02;28.40;;;6.77;;
10557;SDS011;5327;47.238;-2.304;2023-03-19T16:08:31;20.23;;;5.23;;
10557;SDS011;5327;47.238;-2.304;2023-03-19T16:11:13;16.67;;;3.83;;
10557;SDS011;5327;47.238;-2.304;2023-03-19T16:13:40;20.20;;;4.77;;
10557;SDS011;5327;47.238;-2.304;2023-03-19T16:16:18;21.73;;;3.97;;
10557;SDS011;5327;47.238;-2.304;2023-03-19T16:18:52;17.93;;;4.80;;
10557;SDS011;5327;47.238;-2.304;2023-03-19T16:23:50;27.67;;;4.77;;
10557;SDS011;5327;47.238;-2.304;2023-03-19T16:26:24;18.13;;;5.83;;
10557;SDS011;5327;47.238;-2.304;2023-03-19T16:31:54;26.80;;;5.33;;
10557;SDS011;5327;47.238;-2.304;2023-03-19T16:34:41;21.27;;;4.63;;
10557;SDS011;5327;47.238;-2.304;2023-03-19T16:37:32;17.70;;;4.43;;
10557;SDS011;5327;47.238;-2.304;2023-03-19T16:40:44;21.63;;;4.30;;
10557;SDS011;5327;47.238;-2.304;2023-03-19T16:47:42;23.43;;;5.10;;
10557;SDS011;5327;47.238;-2.304;2023-03-19T16:50:13;26.23;;;5.57;;
10557;SDS011;5327;47.238;-2.304;2023-03-19T16:52:39;17.40;;;4.13;;
10557;SDS011;5327;47.238;-2.304;2023-03-19T16:55:15;21.13;;;4.20;;
10557;SDS011;5327;47.238;-2.304;2023-03-19T16:57:56;19.70;;;4.40;;
10557;SDS011;5327;47.238;-2.304;2023-03-19T17:00:25;22.43;;;5.77;;
10557;SDS011;5327;47.238;-2.304;2023-03-19T17:02:53;23.07;;;5.80;;
10557;SDS011;5327;47.238;-2.304;2023-03-19T17:05:22;21.20;;;4.80;;
10557;SDS011;5327;47.238;-2.304;2023-03-19T17:07:50;20.00;;;4.50;;
10557;SDS011;5327;47.238;-2.304;2023-03-19T17:10:19;23.77;;;5.47;;
10557;SDS011;5327;47.238;-2.304;2023-03-19T17:12:47;36.50;;;6.40;;
10557;SDS011;5327;47.238;-2.304;2023-03-19T17:15:26;25.43;;;5.20;;
10557;SDS011;5327;47.238;-2.304;2023-03-19T17:18:03;17.97;;;5.63;;
10557;SDS011;5327;47.238;-2.304;2023-03-19T17:20:37;26.50;;;5.20;;
10557;SDS011;5327;47.238;-2.304;2023-03-19T17:23:10;19.80;;;5.30;;
10557;SDS011;5327;47.238;-2.304;2023-03-19T17:25:36;17.00;;;5.00;;
10557;SDS011;5327;47.238;-2.304;2023-03-19T17:28:02;23.67;;;5.50;;
10557;SDS011;5327;47.238;-2.304;2023-03-19T17:30:28;25.60;;;4.73;;